Time;durP1;ratioP1;P1;durP2;ratioP2;P2;SDS_P1;SDS_P2;PMS_P1;PMS_P2;Temp;Humidity;BMP_temperature;BMP_pressure;BME280_temperature;BME280_humidity;BME280_pressure;Samples;Min_cycle;Max_cycle;Signal;HPM_P1;HPM_P2
2022/04/19 00:00:16;;;;;;;8.98;3.40;;;;;;;7.23;58.05;100335.77;1572294;89;26380;-74
2022/04/19 00:02:45;;;;;;;6.15;3.50;;;;;;;7.20;57.90;100331.30;1579859;89;27432;-75
2022/04/19 00:05:11;;;;;;;4.28;3.12;;;;;;;7.19;57.91;100328.28;1589965;89;25878;-75
2022/04/19 00:07:39;;;;;;;6.17;3.77;;;;;;;7.18;58.69;100329.30;1591967;87;25765;-75
2022/04/19 00:10:07;;;;;;;6.17;3.30;;;;;;;7.16;58.56;100328.65;1586643;88;25925;-75
2022/04/19 00:12:34;;;;;;;6.95;3.37;;;;;;;7.15;59.12;100327.81;1574292;88;26805;-75
2022/04/19 00:15:01;;;;;;;5.47;3.37;;;;;;;7.06;59.22;100324.83;1574332;88;27479;-74
2022/04/19 00:17:27;;;;;;;8.20;2.87;;;;;;;6.92;59.60;100326.38;1565650;88;26031;-75
2022/04/19 00:19:53;;;;;;;3.98;2.75;;;;;;;6.73;59.54;100316.59;1586972;90;25371;-75
2022/04/19 00:22:22;;;;;;;6.75;3.00;;;;;;;6.65;60.29;100325.94;1590077;88;25847;-75
2022/04/19 00:24:48;;;;;;;5.30;2.95;;;;;;;6.51;60.85;100329.25;1589859;88;25948;-75
2022/04/19 00:27:14;;;;;;;6.12;3.00;;;;;;;6.41;61.20;100321.95;1593067;88;28298;-74
2022/04/19 00:29:41;;;;;;;4.83;3.42;;;;;;;6.31;62.21;100326.09;1591093;88;25816;-75
2022/04/19 00:32:09;;;;;;;6.12;2.92;;;;;;;6.21;63.48;100325.43;1589534;88;26475;-75
2022/04/19 00:34:35;;;;;;;5.00;3.40;;;;;;;6.08;64.19;100328.58;1590185;88;25850;-75
2022/04/19 00:37:02;;;;;;;5.75;3.20;;;;;;;5.94;65.36;100331.89;1590298;90;26080;-75
2022/04/19 00:39:29;;;;;;;4.67;2.42;;;;;;;5.80;66.16;100327.16;1591785;88;27652;-74
2022/04/19 00:41:56;;;;;;;4.83;3.10;;;;;;;5.68;67.82;100332.45;1583902;88;25358;-75
2022/04/19 00:44:23;;;;;;;3.17;2.47;;;;;;;5.55;68.24;100325.44;1582380;90;25844;-75
2022/04/19 00:46:50;;;;;;;7.17;2.98;;;;;;;5.42;69.88;100331.21;1589385;88;25996;-74
2022/04/19 00:49:20;;;;;;;4.62;2.60;;;;;;;5.28;68.92;100325.16;1594361;88;25766;-75
2022/04/19 00:51:47;;;;;;;7.55;3.00;;;;;;;5.26;69.32;100323.16;1590483;90;27472;-75
2022/04/19 00:54:17;;;;;;;4.78;2.98;;;;;;;5.22;70.61;100319.16;1565844;89;25920;-75
2022/04/19 00:56:46;;;;;;;4.00;2.77;;;;;;;5.18;70.01;100321.80;1574074;88;26023;-75
2022/04/19 00:59:13;;;;;;;4.67;3.10;;;;;;;5.17;70.07;100320.64;1593088;88;26526;-74
2022/04/19 01:01:40;;;;;;;5.15;2.45;;;;;;;5.14;70.34;100319.13;1579716;90;25954;-74
2022/04/19 01:04:07;;;;;;;4.37;2.47;;;;;;;5.09;70.97;100316.11;1581884;88;27128;-75
2022/04/19 01:06:33;;;;;;;5.25;2.27;;;;;;;5.04;71.65;100314.45;1581305;88;26540;-75
2022/04/19 01:09:00;;;;;;;5.53;2.62;;;;;;;4.98;71.44;100312.91;1591607;88;25751;-74
2022/04/19 01:14:13;;;;;;;4.42;2.92;;;;;;;4.94;72.35;100310.24;1590286;88;25955;-75
2022/04/19 01:16:42;;;;;;;3.77;2.30;;;;;;;4.88;73.20;100303.72;1590335;88;27490;-75
2022/04/19 01:19:15;;;;;;;5.42;2.50;;;;;;;4.84;73.09;100307.69;1585112;90;25767;-75
2022/04/19 01:21:49;;;;;;;5.03;2.77;;;;;;;4.78;72.98;100298.19;1577939;88;25941;-75
2022/04/19 01:24:19;;;;;;;4.30;2.47;;;;;;;4.79;73.28;100299.88;1583790;88;25807;-74
2022/04/19 01:26:46;;;;;;;3.85;2.30;;;;;;;4.80;73.63;100299.70;1593131;88;25952;-75
2022/04/19 01:29:13;;;;;;;5.00;2.15;;;;;;;4.81;73.52;100297.41;1595060;88;27494;-74
2022/04/19 01:31:42;;;;;;;3.30;2.47;;;;;;;4.82;73.91;100295.56;1590149;90;25957;-75
2022/04/19 01:34:09;;;;;;;3.75;2.27;;;;;;;4.82;73.93;100296.89;1559436;88;26695;-75
2022/04/19 01:36:37;;;;;;;3.60;2.42;;;;;;;4.81;74.60;100295.23;1590257;90;26346;-75
2022/04/19 01:39:08;;;;;;;2.52;2.15;;;;;;;4.72;74.81;100286.40;1573767;88;25855;-75
2022/04/19 01:41:35;;;;;;;6.20;2.25;;;;;;;4.66;75.35;100289.16;1586345;88;27644;-74
2022/04/19 01:44:06;;;;;;;3.95;2.77;;;;;;;4.61;75.23;100282.19;1584208;88;25824;-75
2022/04/19 01:46:36;;;;;;;5.53;2.47;;;;;;;4.58;75.38;100279.00;1579628;88;26044;-75
2022/04/19 01:49:05;;;;;;;4.83;2.60;;;;;;;4.59;75.14;100276.70;1593196;88;25845;-75
2022/04/19 01:51:31;;;;;;;3.55;2.30;;;;;;;4.60;75.14;100273.88;1586245;88;26529;-74
2022/04/19 01:53:58;;;;;;;4.45;2.52;;;;;;;4.64;74.84;100272.58;1582369;88;27829;-74
2022/04/19 01:56:25;;;;;;;7.45;2.83;;;;;;;4.69;74.97;100265.48;1545644;90;25858;-74
2022/04/19 01:58:54;;;;;;;4.40;2.75;;;;;;;4.76;74.89;100269.66;1587616;88;25778;-75
2022/04/19 02:01:22;;;;;;;4.78;2.42;;;;;;;4.84;74.64;100267.04;1573243;90;25829;-75
2022/04/19 02:03:49;;;;;;;3.92;2.60;;;;;;;4.88;74.87;100267.90;1588032;88;26441;-75
2022/04/19 02:06:19;;;;;;;5.05;2.70;;;;;;;4.89;74.59;100258.96;1579707;88;27506;-75
2022/04/19 02:08:45;;;;;;;3.83;2.85;;;;;;;4.91;74.68;100264.94;1589735;88;26018;-75
2022/04/19 02:11:16;;;;;;;;;;;;;;;4.95;74.66;100264.12;1585845;88;25758;-74
2022/04/19 02:13:43;;;;;;;5.87;2.37;;;;;;;4.96;74.96;100261.81;1587961;88;25879;-74
2022/04/19 02:16:11;;;;;;;3.77;2.58;;;;;;;4.97;74.73;100260.81;1589024;88;25905;-75
2022/04/19 02:18:38;;;;;;;5.08;2.80;;;;;;;5.00;74.68;100260.50;1578966;88;27463;-75
2022/04/19 02:21:04;;;;;;;2.50;2.27;;;;;;;4.99;74.73;100260.16;1583795;88;26529;-75
2022/04/19 02:23:30;;;;;;;6.33;2.83;;;;;;;4.93;74.79;100256.33;1585010;90;25872;-75
2022/04/19 02:25:56;;;;;;;5.65;2.95;;;;;;;4.89;74.86;100258.96;1568137;90;25947;-75
2022/04/19 02:28:23;;;;;;;4.12;2.67;;;;;;;4.89;74.82;100254.98;1590008;90;26276;-75
2022/04/19 02:30:51;;;;;;;3.65;2.72;;;;;;;4.90;74.92;100257.95;1587682;90;27506;-75
2022/04/19 02:33:19;;;;;;;4.87;2.70;;;;;;;4.92;74.71;100249.86;1594289;88;25783;-75
2022/04/19 02:35:46;;;;;;;5.25;2.85;;;;;;;4.94;74.76;100253.98;1577811;90;25917;-75
2022/04/19 02:38:13;;;;;;;2.70;2.22;;;;;;;4.97;74.90;100256.83;1585897;88;26683;-75
2022/04/19 02:40:41;;;;;;;4.60;2.55;;;;;;;4.98;74.80;100255.84;1589365;88;25831;-75
2022/04/19 02:43:08;;;;;;;5.83;3.10;;;;;;;4.95;74.69;100257.48;1578023;88;27464;-75
2022/04/19 02:45:35;;;;;;;2.85;2.60;;;;;;;4.93;74.64;100256.81;1583829;88;25890;-75
2022/04/19 02:48:06;;;;;;;7.10;2.87;;;;;;;4.93;74.72;100260.80;1570009;90;25784;-75
2022/04/19 02:50:41;;;;;;;4.47;2.67;;;;;;;4.91;74.83;100260.96;1597077;88;26612;-75
2022/04/19 02:53:08;;;;;;;4.05;2.90;;;;;;;4.92;74.95;100263.13;1577673;90;25791;-75
2022/04/19 02:55:36;;;;;;;4.12;2.77;;;;;;;4.93;75.09;100266.10;1579506;88;28448;-75
2022/04/19 02:58:03;;;;;;;3.10;2.70;;;;;;;4.91;74.94;100259.63;1593537;88;25918;-75
2022/04/19 03:00:30;;;;;;;4.62;2.95;;;;;;;4.92;74.91;100265.78;1592955;88;25802;-75
2022/04/19 03:02:56;;;;;;;3.80;2.58;;;;;;;4.91;74.92;100262.78;1591581;88;26305;-75
2022/04/19 03:05:23;;;;;;;4.62;3.02;;;;;;;4.86;74.78;100264.58;1590464;90;25750;-75
2022/04/19 03:07:49;;;;;;;4.15;2.92;;;;;;;4.84;74.61;100264.39;1571790;88;27503;-75
2022/04/19 03:10:17;;;;;;;2.90;2.58;;;;;;;4.80;74.48;100266.53;1568471;88;25892;-75
2022/04/19 03:12:44;;;;;;;5.90;2.65;;;;;;;4.78;74.40;100267.68;1583407;88;25929;-75
2022/04/19 03:15:12;;;;;;;3.45;2.80;;;;;;;4.79;74.60;100268.03;1578630;90;25948;-75
2022/04/19 03:17:40;;;;;;;6.12;2.72;;;;;;;4.77;74.58;100268.69;1589786;88;25921;-75
2022/04/19 03:20:09;;;;;;;5.58;2.70;;;;;;;4.77;74.80;100273.99;1580803;90;28386;-75
2022/04/19 03:28:11;;;;;;;4.30;2.83;;;;;;;4.65;75.80;100268.11;1571548;90;25851;-75
2022/04/19 03:30:39;;;;;;;4.53;2.98;;;;;;;4.51;75.99;100267.37;1590247;88;26133;-75
2022/04/19 03:33:05;;;;;;;3.95;2.70;;;;;;;4.40;75.98;100269.78;1587484;90;27572;-75
2022/04/19 03:35:36;;;;;;;5.20;3.08;;;;;;;4.37;76.38;100270.09;1580531;88;26124;-75
2022/04/19 03:38:00;;;;;;;4.50;2.80;;;;;;;4.34;76.39;100267.73;1567267;90;25852;-75
2022/04/19 03:40:26;;;;;;;5.25;2.72;;;;;;;4.31;76.57;100270.71;1584356;88;25853;-75
2022/04/19 03:42:54;;;;;;;3.50;2.77;;;;;;;4.27;76.73;100279.96;1582310;88;25881;-75
2022/04/19 03:45:20;;;;;;;4.90;2.83;;;;;;;4.26;77.12;100279.61;1583746;88;28353;-75
2022/04/19 03:47:48;;;;;;;4.40;2.87;;;;;;;4.26;77.21;100280.94;1589961;88;25841;-75
2022/04/19 03:50:16;;;;;;;5.22;2.72;;;;;;;4.25;77.64;100283.27;1586822;88;25805;-74
2022/04/19 03:52:44;;;;;;;7.37;3.10;;;;;;;4.24;77.68;100281.58;1591230;88;26502;-75
2022/04/19 03:55:11;;;;;;;3.98;3.00;;;;;;;4.25;77.76;100286.40;1572772;88;25870;-75
2022/04/19 03:57:37;;;;;;;3.00;2.70;;;;;;;4.20;78.22;100285.53;1544479;88;27509;-75
2022/04/19 04:00:06;;;;;;;5.50;2.90;;;;;;;4.14;78.69;100287.96;1575858;88;25476;-75
2022/04/19 04:02:34;;;;;;;4.35;2.95;;;;;;;4.09;78.91;100283.59;1574395;90;25799;-75
2022/04/19 04:05:01;;;;;;;3.45;2.62;;;;;;;4.04;78.96;100286.73;1575889;88;25932;-75
2022/04/19 04:07:27;;;;;;;4.22;2.62;;;;;;;4.01;79.67;100279.08;1585797;88;26000;-74
2022/04/19 04:09:55;;;;;;;3.40;2.62;;;;;;;3.97;80.67;100285.67;1576603;90;27680;-75
2022/04/19 04:12:21;;;;;;;5.53;3.30;;;;;;;3.96;80.32;100287.16;1587834;88;26572;-75
2022/04/19 04:14:48;;;;;;;3.50;2.50;;;;;;;3.99;80.22;100284.19;1592094;88;25928;-75
2022/04/19 04:17:14;;;;;;;3.00;2.67;;;;;;;4.02;80.40;100282.05;1589480;90;25888;-75
2022/04/19 04:19:43;;;;;;;4.30;2.85;;;;;;;4.04;80.30;100289.39;1593089;88;25877;-75
2022/04/19 04:22:10;;;;;;;4.13;2.87;;;;;;;4.04;80.16;100292.03;1553127;91;27570;-75
2022/04/19 04:24:37;;;;;;;3.47;3.15;;;;;;;4.05;80.20;100287.55;1586140;88;25881;-75
2022/04/19 04:27:04;;;;;;;5.83;2.30;;;;;;;4.05;80.15;100291.03;1576449;90;26596;-75
2022/04/19 04:29:31;;;;;;;3.65;2.42;;;;;;;4.07;79.87;100292.20;1560561;91;25800;-75
2022/04/19 04:31:57;;;;;;;2.77;2.50;;;;;;;4.08;79.95;100292.07;1557291;90;25808;-75
2022/04/19 04:34:23;;;;;;;3.90;2.52;;;;;;;4.07;79.68;100293.52;1553566;89;27500;-74
2022/04/19 04:36:50;;;;;;;4.65;3.05;;;;;;;4.09;79.86;100300.34;1549953;89;25860;-75
2022/04/19 04:39:18;;;;;;;3.22;2.30;;;;;;;4.10;80.16;100297.20;1541118;91;26069;-74
2022/04/19 04:42:04;;;;;;;3.67;2.95;;;;;;;4.10;80.73;100307.33;1541307;91;26763;-75
2022/04/19 04:44:31;;;;;;;3.95;2.52;;;;;;;4.04;80.77;100307.94;1541590;91;26058;-75
2022/04/19 04:49:41;;;;;;;2.55;2.35;;;;;;;3.98;80.58;100312.49;1556160;89;25806;-75
2022/04/19 04:52:12;;;;;;;3.40;2.52;;;;;;;3.95;80.70;100311.97;1555049;90;25985;-75
2022/04/19 04:54:43;;;;;;;5.83;2.55;;;;;;;3.93;80.66;100315.59;1564195;91;26093;-75
2022/04/19 04:57:11;;;;;;;2.95;2.65;;;;;;;3.95;80.67;100315.95;1553561;89;25840;-75
2022/04/19 04:59:37;;;;;;;2.00;1.90;;;;;;;3.95;80.71;100318.11;1546520;89;28327;-74
2022/04/19 05:02:05;;;;;;;4.47;2.60;;;;;;;3.93;80.80;100316.11;1559203;89;26739;-75
2022/04/19 05:04:33;;;;;;;2.08;1.95;;;;;;;3.90;80.72;100321.21;1555084;89;25913;-75
2022/04/19 05:07:00;;;;;;;2.75;2.25;;;;;;;3.91;81.00;100324.70;1521183;91;26011;-75
2022/04/19 05:09:28;;;;;;;4.87;2.62;;;;;;;3.91;81.00;100316.75;1564846;91;26734;-74
2022/04/19 05:11:55;;;;;;;3.60;3.08;;;;;;;3.93;81.40;100317.92;1532027;91;27946;-75
2022/04/19 05:14:23;;;;;;;2.75;2.40;;;;;;;3.93;81.66;100323.55;1557562;90;26564;-74
2022/04/19 05:16:50;;;;;;;4.37;2.17;;;;;;;3.95;82.24;100326.55;1551265;90;25840;-75
2022/04/19 05:19:16;;;;;;;2.50;2.30;;;;;;;3.93;82.20;100328.52;1552824;89;26537;-75
2022/04/19 05:21:43;;;;;;;2.62;2.42;;;;;;;3.93;82.04;100326.19;1554819;89;25323;-75
2022/04/19 05:24:10;;;;;;;3.15;2.42;;;;;;;3.96;81.61;100326.91;1555430;89;27488;-75
2022/04/19 05:26:37;;;;;;;2.80;2.35;;;;;;;4.02;81.53;100328.95;1556311;89;26141;-75
2022/04/19 05:29:04;;;;;;;3.45;2.70;;;;;;;4.08;81.67;100328.33;1551037;90;26152;-75
2022/04/19 05:31:31;;;;;;;3.35;2.87;;;;;;;4.11;81.36;100328.02;1542858;89;25872;-75
2022/04/19 05:33:57;;;;;;;5.40;3.50;;;;;;;4.17;81.26;100330.08;1553009;90;25849;-75
2022/04/19 05:36:23;;;;;;;2.65;2.15;;;;;;;4.19;80.58;100330.75;1542418;90;27602;-75
2022/04/19 05:38:52;;;;;;;3.50;2.50;;;;;;;4.16;80.43;100327.91;1564754;89;25855;-75
2022/04/19 05:41:21;;;;;;;4.10;2.17;;;;;;;4.20;80.55;100334.57;1564714;91;25803;-75
2022/04/19 05:43:49;;;;;;;2.20;2.00;;;;;;;4.23;80.63;100342.23;1564026;90;26636;-75
2022/04/19 05:46:18;;;;;;;2.50;2.15;;;;;;;4.22;80.40;100342.36;1559656;90;26452;-75
2022/04/19 05:48:45;;;;;;;2.35;2.15;;;;;;;4.17;80.07;100346.79;1535485;91;28286;-75
2022/04/19 05:51:13;;;;;;;3.90;2.80;;;;;;;4.18;80.29;100348.47;1568292;90;25975;-75
2022/04/19 05:53:40;;;;;;;3.95;2.92;;;;;;;4.19;80.28;100355.42;1547434;89;26543;-75
2022/04/19 05:56:07;;;;;;;3.90;2.92;;;;;;;4.19;80.63;100357.27;1524439;91;26819;-75
2022/04/19 05:58:33;;;;;;;3.55;2.70;;;;;;;4.18;80.50;100363.53;1563230;89;26610;-75
2022/04/19 06:01:01;;;;;;;3.27;2.98;;;;;;;4.16;80.44;100364.18;1556783;89;27487;-75
2022/04/19 06:06:15;;;;;;;4.10;2.85;;;;;;;4.12;80.42;100370.77;1554977;91;25845;-75
2022/04/19 06:08:44;;;;;;;3.77;2.75;;;;;;;4.05;80.37;100369.22;1563928;89;25850;-75
2022/04/19 06:11:12;;;;;;;;;;;;;;;4.02;80.67;100373.99;1555712;89;25879;-75
2022/04/19 06:13:40;;;;;;;3.30;2.37;;;;;;;4.01;80.59;100374.97;1541116;91;27565;-74
2022/04/19 06:16:08;;;;;;;5.17;3.37;;;;;;;3.99;80.87;100383.08;1566321;89;25901;-75
2022/04/19 06:18:36;;;;;;;4.50;3.27;;;;;;;3.99;80.76;100383.55;1564771;91;26098;-75
2022/04/19 06:21:05;;;;;;;4.00;3.60;;;;;;;4.01;80.96;100394.84;1563133;89;25947;-75
2022/04/19 06:23:34;;;;;;;4.40;3.30;;;;;;;4.01;80.89;100389.54;1566787;89;26037;-74
2022/04/19 06:26:01;;;;;;;5.65;3.92;;;;;;;4.03;80.89;100394.20;1557846;89;27550;-74
2022/04/19 06:28:28;;;;;;;5.08;3.65;;;;;;;4.06;80.79;100397.88;1556221;89;26062;-74
2022/04/19 06:31:11;;;;;;;4.17;3.77;;;;;;;4.09;80.83;100404.19;1536314;91;25357;-74
2022/04/19 06:33:38;;;;;;;4.22;3.37;;;;;;;4.14;80.87;100400.61;1558288;89;26066;-75
2022/04/19 06:36:06;;;;;;;4.05;3.65;;;;;;;4.17;80.55;100405.63;1564570;91;26595;-75
2022/04/19 06:38:34;;;;;;;4.20;3.80;;;;;;;4.20;80.33;100407.47;1566078;89;27495;-74
2022/04/19 06:41:01;;;;;;;4.22;3.83;;;;;;;4.22;80.52;100413.94;1567741;89;26232;-75
2022/04/19 06:43:31;;;;;;;4.70;4.30;;;;;;;4.27;80.50;100417.83;1564386;90;26017;-77
2022/04/19 06:45:58;;;;;;;4.47;4.08;;;;;;;4.29;80.20;100420.31;1551555;89;25948;-74
2022/04/19 06:48:26;;;;;;;4.67;3.62;;;;;;;4.33;80.22;100421.19;1556558;91;25813;-74
2022/04/19 06:50:52;;;;;;;4.65;3.67;;;;;;;4.38;80.15;100424.72;1533613;90;27521;-74
2022/04/19 06:53:19;;;;;;;5.25;3.72;;;;;;;4.40;80.23;100430.22;1565017;90;25996;-74
2022/04/19 06:55:50;;;;;;;;;;;;;;;4.40;80.06;100430.70;1567137;89;25864;-75
2022/04/19 06:58:16;;;;;;;3.67;3.33;;;;;;;4.40;80.25;100434.20;1559192;89;25831;-74
2022/04/19 07:00:45;;;;;;;6.65;4.42;;;;;;;4.40;79.96;100434.68;1559041;89;26594;-74
2022/04/19 07:03:11;;;;;;;9.23;6.35;;;;;;;4.43;79.86;100437.02;1564688;89;27489;-75
2022/04/19 07:05:42;;;;;;;9.20;7.22;;;;;;;4.46;79.68;100443.35;1539336;91;26203;-75
2022/04/19 07:08:09;;;;;;;5.83;5.22;;;;;;;4.50;79.63;100449.53;1567373;89;25995;-74
2022/04/19 07:10:36;;;;;;;6.42;5.35;;;;;;;4.58;79.58;100448.27;1559961;89;26833;-75
2022/04/19 07:13:20;;;;;;;8.45;6.65;;;;;;;4.62;79.28;100454.94;1548284;91;25894;-75
2022/04/19 07:15:49;;;;;;;7.17;5.87;;;;;;;4.68;79.33;100455.65;1565535;89;27487;-74
2022/04/19 07:18:17;;;;;;;7.03;5.72;;;;;;;4.76;79.25;100458.05;1565798;89;26110;-74
2022/04/19 07:28:58;;;;;;;7.65;6.08;;;;;;;4.88;79.03;100468.75;1565504;89;28178;-74
2022/04/19 07:31:25;;;;;;;7.70;6.05;;;;;;;4.91;78.73;100469.30;1553997;91;25811;-74
2022/04/19 07:33:53;;;;;;;7.87;6.80;;;;;;;4.89;78.34;100481.05;1533623;89;26637;-74
2022/04/19 07:36:20;;;;;;;9.30;6.85;;;;;;;4.80;78.09;100480.14;1557597;90;26583;-75
2022/04/19 07:38:46;;;;;;;9.95;8.00;;;;;;;4.80;78.48;100480.63;1563459;91;25362;-74
2022/04/19 07:41:18;;;;;;;8.63;7.47;;;;;;;4.80;78.33;100484.61;1545274;90;27526;-74
2022/04/19 07:43:46;;;;;;;8.90;8.00;;;;;;;4.82;78.23;100486.12;1547456;89;25950;-74
2022/04/19 07:46:15;;;;;;;9.33;7.12;;;;;;;4.88;78.05;100489.98;1563710;89;25879;-74
2022/04/19 07:48:44;;;;;;;8.43;7.33;;;;;;;4.92;77.96;100482.89;1565077;91;25766;-74
2022/04/19 07:51:12;;;;;;;9.53;8.30;;;;;;;4.98;77.84;100489.42;1564908;90;25920;-74
2022/04/19 07:53:38;;;;;;;9.58;7.80;;;;;;;5.08;78.39;100494.14;1562882;90;27461;-75
2022/04/19 07:56:05;;;;;;;10.50;8.50;;;;;;;5.13;77.69;100494.00;1554470;89;25409;-75
2022/04/19 07:58:31;;;;;;;9.35;8.20;;;;;;;5.20;77.49;100498.20;1562515;89;25806;-75
2022/04/19 08:00:58;;;;;;;9.43;8.48;;;;;;;5.27;77.76;100494.79;1553604;91;26568;-74
2022/04/19 08:03:24;;;;;;;8.68;7.17;;;;;;;5.31;77.66;100497.47;1552790;89;25967;-75
2022/04/19 08:05:51;;;;;;;9.48;8.30;;;;;;;5.28;76.48;100497.77;1563360;90;27101;-74
2022/04/19 08:08:19;;;;;;;10.32;8.28;;;;;;;5.23;76.80;100497.42;1564978;89;25833;-74
2022/04/19 08:10:46;;;;;;;9.38;8.38;;;;;;;5.20;76.83;100505.69;1564457;89;25929;-75
2022/04/19 08:13:12;;;;;;;8.08;7.08;;;;;;;5.22;77.32;100505.03;1548810;91;26289;-74
2022/04/19 08:15:40;;;;;;;7.33;6.62;;;;;;;5.26;76.66;100506.91;1553633;90;26369;-74
2022/04/19 08:18:11;;;;;;;7.35;6.35;;;;;;;5.27;76.26;100513.38;1556038;90;28833;-74
2022/04/19 08:20:36;;;;;;;6.30;5.65;;;;;;;5.30;76.29;100523.67;1567685;89;25846;-75
2022/04/19 08:23:03;;;;;;;7.25;6.55;;;;;;;5.34;76.28;100523.73;1558954;89;25880;-75
2022/04/19 08:25:31;;;;;;;6.72;6.03;;;;;;;5.32;75.77;100521.70;1568443;89;26122;-75
2022/04/19 08:27:58;;;;;;;6.40;5.80;;;;;;;5.31;76.07;100522.70;1564732;89;25986;-74
2022/04/19 08:30:24;;;;;;;7.10;6.12;;;;;;;5.33;76.12;100527.84;1540517;91;27496;-75
2022/04/19 08:32:51;;;;;;;6.97;6.03;;;;;;;5.42;76.57;100531.75;1530851;91;26081;-75
2022/04/19 08:35:18;;;;;;;6.58;5.20;;;;;;;5.48;76.08;100531.61;1564393;91;25816;-75
2022/04/19 08:37:45;;;;;;;6.12;5.10;;;;;;;5.49;75.43;100530.12;1523825;91;26528;-75
2022/04/19 08:40:13;;;;;;;5.95;5.25;;;;;;;5.48;75.07;100536.92;1539693;90;25949;-75
2022/04/19 08:42:41;;;;;;;6.30;5.47;;;;;;;5.49;75.05;100537.28;1553696;89;27754;-77
2022/04/19 08:45:11;;;;;;;5.55;5.00;;;;;;;5.60;75.82;100532.20;1549018;89;25928;-74
2022/04/19 08:47:40;;;;;;;4.95;4.47;;;;;;;5.74;75.45;100537.77;1563563;89;25897;-74
2022/04/19 08:50:12;;;;;;;8.55;5.45;;;;;;;5.81;75.42;100540.62;1542221;90;25819;-75
2022/04/19 08:52:39;;;;;;;6.42;5.30;;;;;;;5.85;74.98;100529.56;1550827;89;25979;-74
2022/04/19 08:57:53;;;;;;;5.90;4.78;;;;;;;5.97;74.94;100536.26;1552458;90;26054;-74
2022/04/19 09:00:24;;;;;;;5.67;5.08;;;;;;;6.03;74.51;100540.94;1566572;89;25838;-75
2022/04/19 09:02:54;;;;;;;6.03;5.42;;;;;;;6.07;73.81;100544.94;1564299;89;26647;-74
2022/04/19 09:05:27;;;;;;;5.33;4.83;;;;;;;6.02;73.15;100544.60;1559344;91;25829;-74
2022/04/19 09:07:58;;;;;;;5.42;4.92;;;;;;;5.97;73.02;100544.72;1567487;89;27659;-74
2022/04/19 09:10:33;;;;;;;5.90;4.70;;;;;;;5.95;72.57;100547.55;1559021;90;25857;-74
2022/04/19 09:13:06;;;;;;;6.55;5.30;;;;;;;5.90;72.61;100552.49;1549983;91;26582;-74
2022/04/19 09:15:41;;;;;;;5.75;4.45;;;;;;;5.89;72.42;100550.84;1558265;89;25953;-74
2022/04/19 09:18:17;;;;;;;4.87;4.37;;;;;;;5.85;71.96;100549.50;1550132;91;25944;-75
2022/04/19 09:20:52;;;;;;;4.97;4.42;;;;;;;5.84;72.08;100557.61;1564197;89;27483;-74
2022/04/19 09:23:19;;;;;;;5.62;5.05;;;;;;;5.81;72.22;100560.08;1533604;92;26148;-73
2022/04/19 09:25:46;;;;;;;5.40;4.62;;;;;;;5.82;72.69;100565.72;1552171;91;25784;-75
2022/04/19 09:28:19;;;;;;;7.80;4.40;;;;;;;5.85;72.65;100558.80;1564373;90;26412;-74
2022/04/19 09:30:48;;;;;;;5.15;4.03;;;;;;;5.93;72.67;100560.17;1564887;90;26472;-75
2022/04/19 09:33:20;;;;;;;4.40;3.95;;;;;;;6.01;72.21;100566.85;1557245;89;27830;-74
2022/04/19 09:35:54;;;;;;;6.97;4.67;;;;;;;5.98;71.14;100562.36;1557772;89;25880;-74
2022/04/19 09:38:47;;;;;;;5.03;3.70;;;;;;;5.94;71.63;100565.84;1561728;89;25850;-74
2022/04/19 09:41:31;;;;;;;4.97;3.95;;;;;;;5.94;71.39;100572.48;1554321;89;26626;-74
2022/04/19 09:44:06;;;;;;;4.60;4.15;;;;;;;5.97;71.64;100563.33;1560378;89;26207;-75
2022/04/19 09:46:32;;;;;;;5.65;3.92;;;;;;;6.11;72.05;100560.94;1547665;89;27592;-74
2022/04/19 09:48:58;;;;;;;4.37;3.98;;;;;;;6.23;71.40;100566.30;1564306;91;26547;-75
2022/04/19 09:51:34;;;;;;;3.92;3.52;;;;;;;6.36;72.38;100561.86;1559696;91;26492;-74
2022/04/19 09:54:03;;;;;;;4.40;4.00;;;;;;;6.54;71.29;100567.93;1561731;90;25779;-74
2022/04/19 09:56:36;;;;;;;3.52;3.17;;;;;;;6.62;70.88;100572.42;1556487;90;25810;-75
2022/04/19 09:59:03;;;;;;;4.65;3.83;;;;;;;6.58;68.61;100571.09;1558640;89;28312;-75
2022/04/19 10:09:34;;;;;;;4.50;4.10;;;;;;;6.88;70.17;100578.00;1566110;89;26043;-74
2022/04/19 10:12:02;;;;;;;5.72;4.67;;;;;;;6.97;68.02;100573.00;1560811;91;27488;-74
2022/04/19 10:14:31;;;;;;;4.75;4.28;;;;;;;7.04;69.13;100575.84;1552206;89;44189;-75
2022/04/19 10:16:58;;;;;;;4.67;4.17;;;;;;;7.15;69.07;100579.52;1545978;89;26507;-74
2022/04/19 10:19:27;;;;;;;5.70;4.03;;;;;;;7.16;67.66;100579.03;1559097;91;25957;-75
2022/04/19 10:21:55;;;;;;;5.17;4.58;;;;;;;7.11;67.75;100576.86;1549495;89;26462;-75
2022/04/19 10:24:21;;;;;;;5.28;4.78;;;;;;;7.15;68.74;100578.68;1557054;91;28324;-75
2022/04/19 10:26:51;;;;;;;5.47;4.22;;;;;;;7.29;68.91;100580.19;1566718;89;25889;-74
2022/04/19 10:29:24;;;;;;;4.92;4.28;;;;;;;7.44;68.55;100577.71;1566254;89;25810;-75
2022/04/19 10:32:03;;;;;;;4.17;3.77;;;;;;;7.58;68.61;100569.87;1563639;89;26593;-74
2022/04/19 10:34:33;;;;;;;4.80;4.30;;;;;;;7.70;66.93;100579.17;1549782;91;25885;-75
2022/04/19 10:37:19;;;;;;;4.75;4.20;;;;;;;7.83;68.12;100573.31;1555686;89;27476;-74
2022/04/19 10:39:55;;;;;;;4.78;4.12;;;;;;;8.04;67.36;100571.45;1555102;89;26529;-74
2022/04/19 10:42:40;;;;;;;5.25;4.72;;;;;;;8.21;65.89;100567.73;1551398;89;25920;-75
2022/04/19 10:45:19;;;;;;;5.20;4.33;;;;;;;8.24;64.40;100572.21;1554931;89;26947;-76
2022/04/19 10:47:57;;;;;;;5.05;4.12;;;;;;;8.27;64.96;100575.08;1547128;90;25950;-75
2022/04/19 10:50:33;;;;;;;7.35;4.30;;;;;;;8.29;64.42;100577.91;1548721;90;28126;-75
2022/04/19 10:53:07;;;;;;;4.53;4.12;;;;;;;8.23;62.42;100568.39;1547819;91;26047;-75
2022/04/19 10:55:43;;;;;;;5.47;4.37;;;;;;;8.25;64.37;100573.05;1559017;90;25869;-75
2022/04/19 10:58:16;;;;;;;5.15;4.25;;;;;;;8.29;62.43;100575.23;1521787;91;25993;-75
2022/04/19 11:00:51;;;;;;;5.85;5.00;;;;;;;8.36;63.16;100578.86;1557717;90;25852;-74
2022/04/19 11:03:47;;;;;;;5.08;4.58;;;;;;;8.42;62.27;100573.34;1543362;91;27578;-74
2022/04/19 11:06:33;;;;;;;5.85;5.25;;;;;;;8.45;63.14;100572.48;1553694;90;25908;-75
2022/04/19 11:09:19;;;;;;;5.55;4.65;;;;;;;8.49;62.66;100583.14;1554606;89;25942;-75
2022/04/19 11:11:53;;;;;;;5.17;4.00;;;;;;;8.45;62.52;100577.83;1550803;90;26595;-74
2022/04/19 11:14:40;;;;;;;4.83;4.30;;;;;;;8.34;61.40;100578.20;1550362;90;25959;-75
2022/04/19 11:17:26;;;;;;;3.98;3.55;;;;;;;8.15;61.35;100580.40;1543104;89;27554;-75
2022/04/19 11:19:56;;;;;;;4.40;3.62;;;;;;;8.04;62.29;100582.13;1552791;91;26039;-75
2022/04/19 11:22:48;;;;;;;6.20;4.40;;;;;;;7.91;61.76;100586.66;1546536;90;25868;-75
2022/04/19 11:25:16;;;;;;;4.28;3.85;;;;;;;7.80;62.13;100583.81;1546069;91;26657;-74
2022/04/19 11:27:57;;;;;;;5.55;3.50;;;;;;;7.73;62.21;100579.34;1552222;90;25891;-75
2022/04/19 11:30:25;;;;;;;4.17;3.55;;;;;;;7.71;62.44;100581.34;1552526;89;27523;-75
2022/04/19 11:32:55;;;;;;;5.20;4.33;;;;;;;7.68;61.52;100582.51;1555554;89;26519;-74
2022/04/19 11:35:22;;;;;;;5.08;4.00;;;;;;;7.65;62.10;100584.69;1540727;91;26101;-74
2022/04/19 11:37:49;;;;;;;4.87;4.10;;;;;;;7.67;61.65;100580.02;1560504;91;26604;-74
2022/04/19 11:48:48;;;;;;;4.92;4.05;;;;;;;7.96;61.33;100586.96;1556284;91;26594;-75
2022/04/19 11:51:17;;;;;;;5.20;4.30;;;;;;;7.96;61.54;100583.45;1563535;91;26534;-74
2022/04/19 11:53:43;;;;;;;5.28;4.22;;;;;;;8.00;60.93;100582.95;1553390;91;26047;-75
2022/04/19 11:56:10;;;;;;;5.00;4.25;;;;;;;8.07;60.87;100584.44;1557623;89;27564;-75
2022/04/19 11:58:38;;;;;;;5.55;4.78;;;;;;;8.14;60.94;100582.75;1555461;89;26506;-75
2022/04/19 12:01:07;;;;;;;6.10;4.95;;;;;;;8.27;61.26;100582.59;1540960;91;25921;-74
2022/04/19 12:03:37;;;;;;;4.92;4.42;;;;;;;8.40;60.54;100581.50;1566666;89;26564;-74
2022/04/19 12:06:14;;;;;;;4.72;4.10;;;;;;;8.51;60.62;100581.12;1553612;89;25988;-74
2022/04/19 12:08:44;;;;;;;4.25;3.83;;;;;;;8.58;59.70;100589.28;1549381;91;27524;-75
2022/04/19 12:11:16;;;;;;;4.72;4.28;;;;;;;8.54;59.06;100577.29;1550210;89;26161;-75
2022/04/19 12:13:46;;;;;;;4.47;4.08;;;;;;;8.57;60.36;100576.95;1523212;90;25902;-75
2022/04/19 12:16:37;;;;;;;5.07;4.43;;;;;;;8.61;59.00;100576.93;1542108;90;25978;-75
2022/04/19 12:19:12;;;;;;;5.67;4.17;;;;;;;8.62;58.51;100573.23;1551063;91;25886;-75
2022/04/19 12:21:44;;;;;;;4.95;4.20;;;;;;;8.73;59.64;100570.67;1554115;90;27481;-74
2022/04/19 12:24:31;;;;;;;5.45;4.60;;;;;;;8.85;58.99;100567.95;1545188;91;26322;-75